Terminal Aerodrome Forecast
Issued by NWS

Home | Current Version | Previous Version | Text Only | Print | Product List | Glossary On
Versions: 1 2 3 4 5 6 7 8 9 10 11 12 13 14 15 16 17 18 19 20 21
000
FTUS43 KPAH 271138
TAFCGI
TAF
KCGI 271138Z 2712/2812 00000KT 4SM BR SCT250
     FM271400 13003KT P6SM SCT010
     FM271800 14004KT P6SM VCTS BKN035CB
     FM272200 16005KT P6SM SCT050 BKN150
     FM280100 VRB03KT 6SM BR SCT040 BKN090=

USA.gov is the U.S. government's official web portal to all federal, state and local government web resources and services.